sensor_id;sensor_type;location;lat;lon;timestamp;P1;durP1;ratioP1;P2;durP2;ratioP2
18176;SDS011;9213;50.858;3.964;2023-04-25T00:02:09;13.30;;;7.47;;
18176;SDS011;9213;50.858;3.964;2023-04-25T00:04:36;12.93;;;7.33;;
18176;SDS011;9213;50.858;3.964;2023-04-25T00:07:03;15.30;;;8.30;;
18176;SDS011;9213;50.858;3.964;2023-04-25T00:09:30;16.77;;;6.83;;
18176;SDS011;9213;50.858;3.964;2023-04-25T00:11:57;17.23;;;7.30;;
18176;SDS011;9213;50.858;3.964;2023-04-25T00:14:26;17.03;;;7.30;;
18176;SDS011;9213;50.858;3.964;2023-04-25T00:16:53;18.53;;;7.10;;
18176;SDS011;9213;50.858;3.964;2023-04-25T00:19:22;19.23;;;7.17;;
18176;SDS011;9213;50.858;3.964;2023-04-25T00:21:49;13.77;;;6.83;;
18176;SDS011;9213;50.858;3.964;2023-04-25T00:24:16;14.90;;;7.47;;
18176;SDS011;9213;50.858;3.964;2023-04-25T00:26:43;17.07;;;7.97;;
18176;SDS011;9213;50.858;3.964;2023-04-25T00:29:10;17.90;;;6.97;;
18176;SDS011;9213;50.858;3.964;2023-04-25T00:31:37;17.80;;;6.90;;
18176;SDS011;9213;50.858;3.964;2023-04-25T00:34:04;15.30;;;6.93;;
18176;SDS011;9213;50.858;3.964;2023-04-25T00:36:33;16.63;;;7.60;;
18176;SDS011;9213;50.858;3.964;2023-04-25T00:39:00;12.67;;;6.83;;
18176;SDS011;9213;50.858;3.964;2023-04-25T00:41:29;16.20;;;6.63;;
18176;SDS011;9213;50.858;3.964;2023-04-25T00:43:56;17.63;;;7.30;;
18176;SDS011;9213;50.858;3.964;2023-04-25T00:46:25;15.97;;;7.10;;
18176;SDS011;9213;50.858;3.964;2023-04-25T00:48:52;19.37;;;6.97;;
18176;SDS011;9213;50.858;3.964;2023-04-25T00:51:19;18.10;;;7.63;;
18176;SDS011;9213;50.858;3.964;2023-04-25T00:53:48;14.33;;;6.97;;
18176;SDS011;9213;50.858;3.964;2023-04-25T00:56:16;16.90;;;7.37;;
18176;SDS011;9213;50.858;3.964;2023-04-25T00:58:43;23.07;;;7.47;;
18176;SDS011;9213;50.858;3.964;2023-04-25T01:01:10;18.37;;;6.73;;
18176;SDS011;9213;50.858;3.964;2023-04-25T01:03:38;18.80;;;7.23;;
18176;SDS011;9213;50.858;3.964;2023-04-25T01:06:07;17.97;;;7.87;;
18176;SDS011;9213;50.858;3.964;2023-04-25T01:08:35;16.70;;;7.33;;
18176;SDS011;9213;50.858;3.964;2023-04-25T01:11:04;16.83;;;7.53;;
18176;SDS011;9213;50.858;3.964;2023-04-25T01:13:32;21.57;;;7.07;;
18176;SDS011;9213;50.858;3.964;2023-04-25T01:16:00;21.17;;;6.90;;
18176;SDS011;9213;50.858;3.964;2023-04-25T01:18:27;24.90;;;7.30;;
18176;SDS011;9213;50.858;3.964;2023-04-25T01:20:55;16.73;;;6.97;;
18176;SDS011;9213;50.858;3.964;2023-04-25T01:23:25;23.77;;;7.23;;
18176;SDS011;9213;50.858;3.964;2023-04-25T01:25:52;16.63;;;6.83;;
18176;SDS011;9213;50.858;3.964;2023-04-25T01:28:19;16.53;;;6.57;;
18176;SDS011;9213;50.858;3.964;2023-04-25T01:30:47;16.37;;;6.63;;
18176;SDS011;9213;50.858;3.964;2023-04-25T01:33:14;14.00;;;5.87;;
18176;SDS011;9213;50.858;3.964;2023-04-25T01:35:42;16.47;;;6.37;;
18176;SDS011;9213;50.858;3.964;2023-04-25T01:38:09;15.70;;;6.53;;
18176;SDS011;9213;50.858;3.964;2023-04-25T01:40:39;21.60;;;6.33;;
18176;SDS011;9213;50.858;3.964;2023-04-25T01:43:07;22.33;;;6.73;;
18176;SDS011;9213;50.858;3.964;2023-04-25T01:45:36;16.57;;;5.70;;
18176;SDS011;9213;50.858;3.964;2023-04-25T01:48:05;19.17;;;6.13;;
18176;SDS011;9213;50.858;3.964;2023-04-25T01:50:32;18.60;;;6.60;;
18176;SDS011;9213;50.858;3.964;2023-04-25T01:52:59;15.67;;;6.40;;
18176;SDS011;9213;50.858;3.964;2023-04-25T01:55:26;16.73;;;5.83;;
18176;SDS011;9213;50.858;3.964;2023-04-25T01:57:55;17.10;;;5.77;;
18176;SDS011;9213;50.858;3.964;2023-04-25T02:00:22;18.63;;;6.40;;
18176;SDS011;9213;50.858;3.964;2023-04-25T02:02:49;17.23;;;6.23;;
18176;SDS011;9213;50.858;3.964;2023-04-25T02:05:18;19.33;;;6.10;;
18176;SDS011;9213;50.858;3.964;2023-04-25T02:07:46;16.60;;;6.00;;
18176;SDS011;9213;50.858;3.964;2023-04-25T02:10:13;18.57;;;5.83;;
18176;SDS011;9213;50.858;3.964;2023-04-25T02:12:40;17.43;;;5.90;;
18176;SDS011;9213;50.858;3.964;2023-04-25T02:15:09;15.67;;;5.97;;
18176;SDS011;9213;50.858;3.964;2023-04-25T02:17:36;21.73;;;5.63;;
18176;SDS011;9213;50.858;3.964;2023-04-25T02:20:04;20.13;;;5.67;;
18176;SDS011;9213;50.858;3.964;2023-04-25T02:22:32;20.13;;;5.63;;
18176;SDS011;9213;50.858;3.964;2023-04-25T02:25:00;17.93;;;5.57;;
18176;SDS011;9213;50.858;3.964;2023-04-25T02:27:29;22.27;;;5.60;;
18176;SDS011;9213;50.858;3.964;2023-04-25T02:29:56;18.30;;;5.90;;
18176;SDS011;9213;50.858;3.964;2023-04-25T02:32:24;17.83;;;5.87;;
18176;SDS011;9213;50.858;3.964;2023-04-25T02:34:51;13.67;;;5.37;;
18176;SDS011;9213;50.858;3.964;2023-04-25T02:37:18;16.67;;;6.37;;
18176;SDS011;9213;50.858;3.964;2023-04-25T02:39:45;20.47;;;5.67;;
18176;SDS011;9213;50.858;3.964;2023-04-25T02:42:12;18.53;;;5.60;;
18176;SDS011;9213;50.858;3.964;2023-04-25T02:44:39;13.87;;;5.97;;
18176;SDS011;9213;50.858;3.964;2023-04-25T02:47:06;14.40;;;5.73;;
18176;SDS011;9213;50.858;3.964;2023-04-25T02:49:34;16.63;;;6.60;;
18176;SDS011;9213;50.858;3.964;2023-04-25T02:52:01;25.00;;;6.97;;
18176;SDS011;9213;50.858;3.964;2023-04-25T02:54:28;14.23;;;5.43;;
18176;SDS011;9213;50.858;3.964;2023-04-25T02:56:55;16.23;;;5.57;;
18176;SDS011;9213;50.858;3.964;2023-04-25T02:59:22;14.10;;;4.80;;
18176;SDS011;9213;50.858;3.964;2023-04-25T03:01:49;13.77;;;5.47;;
18176;SDS011;9213;50.858;3.964;2023-04-25T03:04:16;11.17;;;4.40;;
18176;SDS011;9213;50.858;3.964;2023-04-25T03:06:45;18.80;;;4.30;;
18176;SDS011;9213;50.858;3.964;2023-04-25T03:09:12;13.97;;;4.70;;
18176;SDS011;9213;50.858;3.964;2023-04-25T03:11:39;15.43;;;4.80;;
18176;SDS011;9213;50.858;3.964;2023-04-25T03:14:06;11.20;;;4.20;;
18176;SDS011;9213;50.858;3.964;2023-04-25T03:16:33;12.43;;;5.27;;
18176;SDS011;9213;50.858;3.964;2023-04-25T03:18:59;13.10;;;6.00;;
18176;SDS011;9213;50.858;3.964;2023-04-25T03:21:26;10.87;;;4.97;;
18176;SDS011;9213;50.858;3.964;2023-04-25T03:23:55;14.20;;;5.10;;
18176;SDS011;9213;50.858;3.964;2023-04-25T03:26:21;9.30;;;4.00;;
18176;SDS011;9213;50.858;3.964;2023-04-25T03:28:48;11.30;;;4.30;;
18176;SDS011;9213;50.858;3.964;2023-04-25T03:31:15;16.00;;;4.70;;
18176;SDS011;9213;50.858;3.964;2023-04-25T03:33:42;10.70;;;4.63;;
18176;SDS011;9213;50.858;3.964;2023-04-25T03:36:09;9.20;;;4.53;;
18176;SDS011;9213;50.858;3.964;2023-04-25T03:38:36;13.73;;;4.70;;
18176;SDS011;9213;50.858;3.964;2023-04-25T03:41:04;15.47;;;4.53;;
18176;SDS011;9213;50.858;3.964;2023-04-25T03:43:31;9.97;;;4.27;;
18176;SDS011;9213;50.858;3.964;2023-04-25T03:45:58;13.57;;;4.87;;
18176;SDS011;9213;50.858;3.964;2023-04-25T03:48:26;19.87;;;5.00;;
18176;SDS011;9213;50.858;3.964;2023-04-25T03:50:53;13.67;;;4.57;;
18176;SDS011;9213;50.858;3.964;2023-04-25T03:53:20;14.63;;;4.50;;
18176;SDS011;9213;50.858;3.964;2023-04-25T03:55:47;13.37;;;4.67;;
18176;SDS011;9213;50.858;3.964;2023-04-25T03:58:16;16.97;;;5.20;;
18176;SDS011;9213;50.858;3.964;2023-04-25T04:00:42;10.27;;;4.43;;
18176;SDS011;9213;50.858;3.964;2023-04-25T04:03:09;14.00;;;4.90;;
18176;SDS011;9213;50.858;3.964;2023-04-25T04:05:37;14.03;;;5.07;;
18176;SDS011;9213;50.858;3.964;2023-04-25T04:08:05;18.90;;;5.93;;
18176;SDS011;9213;50.858;3.964;2023-04-25T04:10:32;15.83;;;5.40;;
18176;SDS011;9213;50.858;3.964;2023-04-25T04:12:59;17.07;;;5.30;;
18176;SDS011;9213;50.858;3.964;2023-04-25T04:15:28;14.80;;;4.87;;
18176;SDS011;9213;50.858;3.964;2023-04-25T04:17:57;13.30;;;4.57;;
18176;SDS011;9213;50.858;3.964;2023-04-25T04:20:27;12.37;;;4.70;;
18176;SDS011;9213;50.858;3.964;2023-04-25T04:22:55;18.33;;;5.07;;
18176;SDS011;9213;50.858;3.964;2023-04-25T04:25:21;16.07;;;5.13;;
18176;SDS011;9213;50.858;3.964;2023-04-25T04:27:49;21.17;;;5.83;;
18176;SDS011;9213;50.858;3.964;2023-04-25T04:30:19;14.03;;;4.70;;
18176;SDS011;9213;50.858;3.964;2023-04-25T04:32:50;12.17;;;5.23;;
18176;SDS011;9213;50.858;3.964;2023-04-25T04:35:17;15.07;;;5.40;;
18176;SDS011;9213;50.858;3.964;2023-04-25T04:37:44;10.60;;;5.10;;
18176;SDS011;9213;50.858;3.964;2023-04-25T04:40:11;17.07;;;5.90;;
18176;SDS011;9213;50.858;3.964;2023-04-25T04:42:40;17.63;;;5.80;;
18176;SDS011;9213;50.858;3.964;2023-04-25T04:45:07;13.13;;;4.80;;
18176;SDS011;9213;50.858;3.964;2023-04-25T04:47:35;15.30;;;5.80;;
18176;SDS011;9213;50.858;3.964;2023-04-25T04:50:06;20.93;;;5.67;;
18176;SDS011;9213;50.858;3.964;2023-04-25T04:52:34;17.33;;;5.20;;
18176;SDS011;9213;50.858;3.964;2023-04-25T04:55:01;19.63;;;6.03;;
18176;SDS011;9213;50.858;3.964;2023-04-25T04:57:29;14.93;;;5.53;;
18176;SDS011;9213;50.858;3.964;2023-04-25T04:59:56;11.80;;;5.40;;
18176;SDS011;9213;50.858;3.964;2023-04-25T05:02:23;16.43;;;5.87;;
18176;SDS011;9213;50.858;3.964;2023-04-25T05:04:50;13.40;;;6.03;;
18176;SDS011;9213;50.858;3.964;2023-04-25T05:07:18;15.80;;;5.53;;
18176;SDS011;9213;50.858;3.964;2023-04-25T05:09:46;16.80;;;5.00;;
18176;SDS011;9213;50.858;3.964;2023-04-25T05:12:13;14.53;;;5.30;;
18176;SDS011;9213;50.858;3.964;2023-04-25T05:14:39;20.73;;;5.67;;
18176;SDS011;9213;50.858;3.964;2023-04-25T05:17:06;17.67;;;5.00;;
18176;SDS011;9213;50.858;3.964;2023-04-25T05:19:33;16.83;;;5.67;;
18176;SDS011;9213;50.858;3.964;2023-04-25T05:22:00;15.90;;;6.40;;
18176;SDS011;9213;50.858;3.964;2023-04-25T05:24:29;20.23;;;5.73;;
18176;SDS011;9213;50.858;3.964;2023-04-25T05:26:56;15.07;;;5.20;;
18176;SDS011;9213;50.858;3.964;2023-04-25T05:29:23;13.73;;;6.37;;
18176;SDS011;9213;50.858;3.964;2023-04-25T05:31:50;14.20;;;5.50;;
18176;SDS011;9213;50.858;3.964;2023-04-25T05:34:18;16.67;;;5.60;;
18176;SDS011;9213;50.858;3.964;2023-04-25T05:36:45;12.83;;;5.33;;
18176;SDS011;9213;50.858;3.964;2023-04-25T05:39:13;10.27;;;4.80;;
18176;SDS011;9213;50.858;3.964;2023-04-25T05:41:41;16.33;;;5.60;;
18176;SDS011;9213;50.858;3.964;2023-04-25T05:44:08;9.60;;;4.77;;
18176;SDS011;9213;50.858;3.964;2023-04-25T05:46:35;14.13;;;5.17;;
18176;SDS011;9213;50.858;3.964;2023-04-25T05:49:02;12.80;;;4.63;;
18176;SDS011;9213;50.858;3.964;2023-04-25T05:51:29;12.43;;;4.70;;
18176;SDS011;9213;50.858;3.964;2023-04-25T05:53:56;18.27;;;4.83;;
18176;SDS011;9213;50.858;3.964;2023-04-25T05:56:23;11.97;;;4.63;;
18176;SDS011;9213;50.858;3.964;2023-04-25T05:58:52;16.93;;;4.50;;
18176;SDS011;9213;50.858;3.964;2023-04-25T06:01:19;8.23;;;4.13;;
18176;SDS011;9213;50.858;3.964;2023-04-25T06:03:45;11.93;;;4.83;;
18176;SDS011;9213;50.858;3.964;2023-04-25T06:06:12;14.60;;;5.30;;
18176;SDS011;9213;50.858;3.964;2023-04-25T06:08:39;12.30;;;4.77;;
18176;SDS011;9213;50.858;3.964;2023-04-25T06:11:06;14.97;;;4.53;;
18176;SDS011;9213;50.858;3.964;2023-04-25T06:13:33;12.40;;;5.00;;
18176;SDS011;9213;50.858;3.964;2023-04-25T06:16:01;10.80;;;4.60;;
18176;SDS011;9213;50.858;3.964;2023-04-25T06:18:29;13.33;;;4.93;;
18176;SDS011;9213;50.858;3.964;2023-04-25T06:20:56;16.10;;;5.90;;
18176;SDS011;9213;50.858;3.964;2023-04-25T06:23:23;11.90;;;4.83;;
18176;SDS011;9213;50.858;3.964;2023-04-25T06:25:50;12.00;;;4.30;;
18176;SDS011;9213;50.858;3.964;2023-04-25T06:28:17;10.33;;;4.03;;
18176;SDS011;9213;50.858;3.964;2023-04-25T06:30:44;17.37;;;4.50;;
18176;SDS011;9213;50.858;3.964;2023-04-25T06:33:12;10.63;;;4.43;;
18176;SDS011;9213;50.858;3.964;2023-04-25T06:35:39;19.63;;;5.40;;
18176;SDS011;9213;50.858;3.964;2023-04-25T06:38:06;15.37;;;4.83;;
18176;SDS011;9213;50.858;3.964;2023-04-25T06:40:34;12.23;;;5.30;;
18176;SDS011;9213;50.858;3.964;2023-04-25T06:43:00;12.57;;;4.03;;
18176;SDS011;9213;50.858;3.964;2023-04-25T06:45:27;15.83;;;4.23;;
18176;SDS011;9213;50.858;3.964;2023-04-25T06:47:54;11.07;;;4.00;;
18176;SDS011;9213;50.858;3.964;2023-04-25T06:50:22;12.00;;;4.43;;
18176;SDS011;9213;50.858;3.964;2023-04-25T06:52:49;11.10;;;3.87;;
18176;SDS011;9213;50.858;3.964;2023-04-25T06:55:16;11.93;;;4.33;;
18176;SDS011;9213;50.858;3.964;2023-04-25T06:57:43;15.40;;;4.40;;
18176;SDS011;9213;50.858;3.964;2023-04-25T07:00:11;9.47;;;4.13;;
18176;SDS011;9213;50.858;3.964;2023-04-25T07:02:38;10.63;;;4.20;;
18176;SDS011;9213;50.858;3.964;2023-04-25T07:05:07;12.93;;;4.23;;
18176;SDS011;9213;50.858;3.964;2023-04-25T07:07:36;16.87;;;4.17;;
18176;SDS011;9213;50.858;3.964;2023-04-25T07:10:03;14.57;;;3.97;;
18176;SDS011;9213;50.858;3.964;2023-04-25T07:12:31;13.23;;;4.20;;
18176;SDS011;9213;50.858;3.964;2023-04-25T07:14:58;11.47;;;3.90;;
18176;SDS011;9213;50.858;3.964;2023-04-25T07:17:30;10.17;;;3.40;;
18176;SDS011;9213;50.858;3.964;2023-04-25T07:19:58;14.07;;;3.97;;
18176;SDS011;9213;50.858;3.964;2023-04-25T07:22:25;14.83;;;3.80;;
18176;SDS011;9213;50.858;3.964;2023-04-25T07:24:53;12.23;;;3.50;;
18176;SDS011;9213;50.858;3.964;2023-04-25T07:27:21;11.80;;;3.90;;
18176;SDS011;9213;50.858;3.964;2023-04-25T07:29:48;10.70;;;3.33;;
18176;SDS011;9213;50.858;3.964;2023-04-25T07:32:15;10.50;;;3.53;;
18176;SDS011;9213;50.858;3.964;2023-04-25T07:34:41;8.53;;;3.17;;
18176;SDS011;9213;50.858;3.964;2023-04-25T07:37:08;14.20;;;4.00;;
18176;SDS011;9213;50.858;3.964;2023-04-25T07:39:35;10.93;;;3.73;;
18176;SDS011;9213;50.858;3.964;2023-04-25T07:42:04;8.70;;;3.47;;
18176;SDS011;9213;50.858;3.964;2023-04-25T07:44:33;8.30;;;3.27;;
18176;SDS011;9213;50.858;3.964;2023-04-25T07:47:03;10.07;;;3.50;;
18176;SDS011;9213;50.858;3.964;2023-04-25T07:49:32;11.90;;;3.63;;
18176;SDS011;9213;50.858;3.964;2023-04-25T07:51:59;9.97;;;3.43;;
18176;SDS011;9213;50.858;3.964;2023-04-25T07:54:26;12.23;;;3.57;;
18176;SDS011;9213;50.858;3.964;2023-04-25T07:56:53;9.57;;;3.40;;
18176;SDS011;9213;50.858;3.964;2023-04-25T07:59:22;12.20;;;3.03;;
18176;SDS011;9213;50.858;3.964;2023-04-25T08:01:48;5.80;;;2.80;;
18176;SDS011;9213;50.858;3.964;2023-04-25T08:04:15;10.40;;;3.33;;
18176;SDS011;9213;50.858;3.964;2023-04-25T08:06:43;10.07;;;2.87;;
18176;SDS011;9213;50.858;3.964;2023-04-25T08:09:10;8.23;;;3.17;;
18176;SDS011;9213;50.858;3.964;2023-04-25T08:11:37;8.13;;;3.17;;
18176;SDS011;9213;50.858;3.964;2023-04-25T08:14:04;10.07;;;2.77;;
18176;SDS011;9213;50.858;3.964;2023-04-25T08:16:33;8.20;;;3.10;;
18176;SDS011;9213;50.858;3.964;2023-04-25T08:19:00;6.93;;;3.07;;
18176;SDS011;9213;50.858;3.964;2023-04-25T08:21:27;16.27;;;3.03;;
18176;SDS011;9213;50.858;3.964;2023-04-25T08:23:54;8.70;;;3.07;;
18176;SDS011;9213;50.858;3.964;2023-04-25T08:26:22;7.77;;;3.53;;
18176;SDS011;9213;50.858;3.964;2023-04-25T08:28:49;11.00;;;3.17;;
18176;SDS011;9213;50.858;3.964;2023-04-25T08:31:16;7.97;;;2.87;;
18176;SDS011;9213;50.858;3.964;2023-04-25T08:33:44;8.07;;;3.10;;
18176;SDS011;9213;50.858;3.964;2023-04-25T08:36:11;9.33;;;2.83;;
18176;SDS011;9213;50.858;3.964;2023-04-25T08:38:38;7.20;;;3.03;;
18176;SDS011;9213;50.858;3.964;2023-04-25T08:41:05;9.23;;;2.87;;
18176;SDS011;9213;50.858;3.964;2023-04-25T08:43:33;9.67;;;3.33;;
18176;SDS011;9213;50.858;3.964;2023-04-25T08:46:01;8.30;;;2.87;;
18176;SDS011;9213;50.858;3.964;2023-04-25T08:48:28;8.87;;;3.30;;
18176;SDS011;9213;50.858;3.964;2023-04-25T08:50:59;10.57;;;3.97;;
18176;SDS011;9213;50.858;3.964;2023-04-25T08:53:29;6.93;;;3.00;;
18176;SDS011;9213;50.858;3.964;2023-04-25T08:55:59;7.63;;;3.53;;
18176;SDS011;9213;50.858;3.964;2023-04-25T08:58:27;8.17;;;3.17;;
18176;SDS011;9213;50.858;3.964;2023-04-25T09:00:55;6.00;;;2.47;;
18176;SDS011;9213;50.858;3.964;2023-04-25T09:03:22;7.63;;;2.63;;
18176;SDS011;9213;50.858;3.964;2023-04-25T09:05:49;4.57;;;1.77;;
18176;SDS011;9213;50.858;3.964;2023-04-25T09:08:18;8.23;;;2.27;;
18176;SDS011;9213;50.858;3.964;2023-04-25T09:10:45;8.17;;;2.43;;
18176;SDS011;9213;50.858;3.964;2023-04-25T09:13:13;8.20;;;2.77;;
18176;SDS011;9213;50.858;3.964;2023-04-25T09:15:47;6.37;;;2.33;;
18176;SDS011;9213;50.858;3.964;2023-04-25T09:18:21;5.40;;;2.30;;
18176;SDS011;9213;50.858;3.964;2023-04-25T09:20:51;8.90;;;2.20;;
18176;SDS011;9213;50.858;3.964;2023-04-25T09:23:21;6.13;;;2.37;;
18176;SDS011;9213;50.858;3.964;2023-04-25T09:25:49;2.80;;;1.90;;
18176;SDS011;9213;50.858;3.964;2023-04-25T09:28:19;6.87;;;2.63;;
18176;SDS011;9213;50.858;3.964;2023-04-25T09:30:52;6.20;;;2.10;;
18176;SDS011;9213;50.858;3.964;2023-04-25T09:33:26;5.53;;;2.20;;
18176;SDS011;9213;50.858;3.964;2023-04-25T09:35:56;5.83;;;1.80;;
18176;SDS011;9213;50.858;3.964;2023-04-25T09:38:31;6.70;;;2.27;;
18176;SDS011;9213;50.858;3.964;2023-04-25T09:40:58;6.17;;;1.90;;
18176;SDS011;9213;50.858;3.964;2023-04-25T09:43:26;4.37;;;2.20;;
18176;SDS011;9213;50.858;3.964;2023-04-25T09:45:54;7.30;;;2.20;;
18176;SDS011;9213;50.858;3.964;2023-04-25T09:48:26;4.50;;;1.77;;
18176;SDS011;9213;50.858;3.964;2023-04-25T09:51:07;4.47;;;2.30;;
18176;SDS011;9213;50.858;3.964;2023-04-25T09:53:36;6.03;;;1.90;;
18176;SDS011;9213;50.858;3.964;2023-04-25T09:56:05;4.97;;;1.80;;
18176;SDS011;9213;50.858;3.964;2023-04-25T09:58:33;5.23;;;2.23;;
18176;SDS011;9213;50.858;3.964;2023-04-25T10:01:01;5.27;;;1.60;;
18176;SDS011;9213;50.858;3.964;2023-04-25T10:03:30;3.67;;;1.80;;
18176;SDS011;9213;50.858;3.964;2023-04-25T10:05:59;7.07;;;1.93;;
18176;SDS011;9213;50.858;3.964;2023-04-25T10:08:29;4.27;;;2.20;;
18176;SDS011;9213;50.858;3.964;2023-04-25T10:11:00;8.67;;;2.47;;
18176;SDS011;9213;50.858;3.964;2023-04-25T10:13:29;7.93;;;3.13;;
18176;SDS011;9213;50.858;3.964;2023-04-25T10:15:57;10.90;;;4.60;;
18176;SDS011;9213;50.858;3.964;2023-04-25T10:18:25;11.60;;;4.50;;
18176;SDS011;9213;50.858;3.964;2023-04-25T10:20:53;14.83;;;5.97;;
18176;SDS011;9213;50.858;3.964;2023-04-25T10:23:21;17.87;;;7.47;;
18176;SDS011;9213;50.858;3.964;2023-04-25T10:25:49;14.90;;;6.57;;
18176;SDS011;9213;50.858;3.964;2023-04-25T10:28:19;11.53;;;5.30;;
18176;SDS011;9213;50.858;3.964;2023-04-25T10:30:56;8.77;;;3.93;;
18176;SDS011;9213;50.858;3.964;2023-04-25T10:33:29;6.83;;;2.57;;
18176;SDS011;9213;50.858;3.964;2023-04-25T10:36:08;5.87;;;1.93;;
18176;SDS011;9213;50.858;3.964;2023-04-25T10:38:36;6.13;;;2.00;;
18176;SDS011;9213;50.858;3.964;2023-04-25T10:41:03;5.10;;;1.80;;
18176;SDS011;9213;50.858;3.964;2023-04-25T10:43:35;5.47;;;1.60;;
18176;SDS011;9213;50.858;3.964;2023-04-25T10:46:12;3.97;;;2.07;;
18176;SDS011;9213;50.858;3.964;2023-04-25T10:48:44;5.13;;;2.00;;
18176;SDS011;9213;50.858;3.964;2023-04-25T10:51:19;2.87;;;1.63;;
18176;SDS011;9213;50.858;3.964;2023-04-25T10:53:52;4.73;;;1.60;;
18176;SDS011;9213;50.858;3.964;2023-04-25T10:56:25;5.53;;;2.13;;
18176;SDS011;9213;50.858;3.964;2023-04-25T10:59:03;4.00;;;1.60;;
18176;SDS011;9213;50.858;3.964;2023-04-25T11:01:36;5.30;;;1.63;;
18176;SDS011;9213;50.858;3.964;2023-04-25T11:04:06;5.50;;;2.00;;
18176;SDS011;9213;50.858;3.964;2023-04-25T11:06:46;3.37;;;2.00;;
18176;SDS011;9213;50.858;3.964;2023-04-25T11:09:27;3.90;;;2.00;;
18176;SDS011;9213;50.858;3.964;2023-04-25T11:11:55;5.73;;;2.23;;
18176;SDS011;9213;50.858;3.964;2023-04-25T11:14:24;3.33;;;1.60;;
18176;SDS011;9213;50.858;3.964;2023-04-25T11:16:52;8.17;;;2.43;;
18176;SDS011;9213;50.858;3.964;2023-04-25T11:19:20;6.47;;;1.93;;
18176;SDS011;9213;50.858;3.964;2023-04-25T11:21:48;2.13;;;1.43;;
18176;SDS011;9213;50.858;3.964;2023-04-25T11:24:15;6.40;;;2.47;;
18176;SDS011;9213;50.858;3.964;2023-04-25T11:26:43;4.47;;;2.33;;
18176;SDS011;9213;50.858;3.964;2023-04-25T11:29:10;6.13;;;2.20;;
18176;SDS011;9213;50.858;3.964;2023-04-25T11:31:38;3.30;;;1.70;;
18176;SDS011;9213;50.858;3.964;2023-04-25T11:34:09;3.57;;;1.80;;
18176;SDS011;9213;50.858;3.964;2023-04-25T11:36:36;4.60;;;2.10;;
18176;SDS011;9213;50.858;3.964;2023-04-25T11:39:04;4.93;;;1.93;;
18176;SDS011;9213;50.858;3.964;2023-04-25T11:41:31;4.47;;;2.00;;
18176;SDS011;9213;50.858;3.964;2023-04-25T11:43:58;3.67;;;1.80;;
18176;SDS011;9213;50.858;3.964;2023-04-25T11:46:25;4.43;;;2.40;;
18176;SDS011;9213;50.858;3.964;2023-04-25T11:48:54;4.00;;;2.40;;
18176;SDS011;9213;50.858;3.964;2023-04-25T11:51:23;6.03;;;2.00;;
18176;SDS011;9213;50.858;3.964;2023-04-25T11:53:50;5.30;;;2.00;;
18176;SDS011;9213;50.858;3.964;2023-04-25T11:56:17;3.47;;;1.73;;
18176;SDS011;9213;50.858;3.964;2023-04-25T12:01:32;3.07;;;2.10;;
18176;SDS011;9213;50.858;3.964;2023-04-25T12:04:12;4.73;;;2.40;;
18176;SDS011;9213;50.858;3.964;2023-04-25T12:06:41;6.13;;;2.53;;
18176;SDS011;9213;50.858;3.964;2023-04-25T12:09:11;3.60;;;3.00;;
18176;SDS011;9213;50.858;3.964;2023-04-25T12:11:40;3.70;;;3.33;;
18176;SDS011;9213;50.858;3.964;2023-04-25T12:14:08;10.10;;;4.53;;
18176;SDS011;9213;50.858;3.964;2023-04-25T12:16:42;6.70;;;3.90;;
18176;SDS011;9213;50.858;3.964;2023-04-25T12:19:13;5.73;;;3.30;;
18176;SDS011;9213;50.858;3.964;2023-04-25T12:21:42;5.00;;;3.30;;
18176;SDS011;9213;50.858;3.964;2023-04-25T12:24:09;5.47;;;3.10;;
18176;SDS011;9213;50.858;3.964;2023-04-25T12:26:47;4.00;;;2.30;;
18176;SDS011;9213;50.858;3.964;2023-04-25T12:29:16;7.53;;;3.63;;
18176;SDS011;9213;50.858;3.964;2023-04-25T12:31:43;6.03;;;3.37;;
18176;SDS011;9213;50.858;3.964;2023-04-25T12:34:11;6.47;;;3.67;;
18176;SDS011;9213;50.858;3.964;2023-04-25T12:36:39;5.87;;;3.80;;
18176;SDS011;9213;50.858;3.964;2023-04-25T12:39:06;7.50;;;3.37;;
18176;SDS011;9213;50.858;3.964;2023-04-25T12:41:33;5.90;;;3.50;;
18176;SDS011;9213;50.858;3.964;2023-04-25T12:44:01;5.47;;;2.90;;
18176;SDS011;9213;50.858;3.964;2023-04-25T12:46:28;5.57;;;2.60;;
18176;SDS011;9213;50.858;3.964;2023-04-25T12:48:54;5.93;;;3.73;;
18176;SDS011;9213;50.858;3.964;2023-04-25T12:51:22;9.93;;;4.57;;
18176;SDS011;9213;50.858;3.964;2023-04-25T12:53:51;12.13;;;4.10;;
18176;SDS011;9213;50.858;3.964;2023-04-25T12:56:18;7.40;;;4.17;;
18176;SDS011;9213;50.858;3.964;2023-04-25T12:58:45;7.03;;;3.00;;
18176;SDS011;9213;50.858;3.964;2023-04-25T13:01:13;5.77;;;2.57;;
18176;SDS011;9213;50.858;3.964;2023-04-25T13:03:40;3.60;;;2.37;;
18176;SDS011;9213;50.858;3.964;2023-04-25T13:06:07;4.60;;;2.37;;
18176;SDS011;9213;50.858;3.964;2023-04-25T13:08:34;6.70;;;2.87;;
18176;SDS011;9213;50.858;3.964;2023-04-25T13:11:03;5.23;;;3.07;;
18176;SDS011;9213;50.858;3.964;2023-04-25T13:13:30;6.20;;;2.70;;
18176;SDS011;9213;50.858;3.964;2023-04-25T13:15:59;5.80;;;3.30;;
18176;SDS011;9213;50.858;3.964;2023-04-25T13:18:26;5.70;;;2.90;;
18176;SDS011;9213;50.858;3.964;2023-04-25T13:20:53;4.93;;;2.20;;
18176;SDS011;9213;50.858;3.964;2023-04-25T13:23:21;3.10;;;1.70;;
18176;SDS011;9213;50.858;3.964;2023-04-25T13:25:48;4.50;;;2.10;;
18176;SDS011;9213;50.858;3.964;2023-04-25T13:28:17;7.13;;;2.50;;
18176;SDS011;9213;50.858;3.964;2023-04-25T13:30:44;6.00;;;2.13;;
18176;SDS011;9213;50.858;3.964;2023-04-25T13:33:12;3.50;;;1.80;;
18176;SDS011;9213;50.858;3.964;2023-04-25T13:35:40;4.13;;;1.80;;
18176;SDS011;9213;50.858;3.964;2023-04-25T13:38:07;6.17;;;2.20;;
18176;SDS011;9213;50.858;3.964;2023-04-25T13:40:34;5.77;;;2.60;;
18176;SDS011;9213;50.858;3.964;2023-04-25T13:43:01;5.80;;;2.20;;
18176;SDS011;9213;50.858;3.964;2023-04-25T13:45:29;5.37;;;2.20;;
18176;SDS011;9213;50.858;3.964;2023-04-25T13:47:56;5.37;;;2.53;;
18176;SDS011;9213;50.858;3.964;2023-04-25T13:50:23;3.77;;;2.20;;
18176;SDS011;9213;50.858;3.964;2023-04-25T13:52:50;5.10;;;2.27;;
18176;SDS011;9213;50.858;3.964;2023-04-25T13:55:17;6.13;;;2.37;;
18176;SDS011;9213;50.858;3.964;2023-04-25T13:57:44;3.63;;;1.90;;
18176;SDS011;9213;50.858;3.964;2023-04-25T14:00:12;10.07;;;4.10;;
18176;SDS011;9213;50.858;3.964;2023-04-25T14:02:41;7.63;;;3.00;;
18176;SDS011;9213;50.858;3.964;2023-04-25T14:05:08;4.20;;;2.27;;
18176;SDS011;9213;50.858;3.964;2023-04-25T14:07:35;5.40;;;3.97;;
18176;SDS011;9213;50.858;3.964;2023-04-25T14:10:02;8.43;;;3.13;;
18176;SDS011;9213;50.858;3.964;2023-04-25T14:12:30;7.80;;;2.70;;
18176;SDS011;9213;50.858;3.964;2023-04-25T14:14:57;6.27;;;3.10;;
18176;SDS011;9213;50.858;3.964;2023-04-25T14:17:24;8.87;;;2.43;;
18176;SDS011;9213;50.858;3.964;2023-04-25T14:19:52;6.03;;;2.57;;
18176;SDS011;9213;50.858;3.964;2023-04-25T14:22:20;4.53;;;2.10;;
18176;SDS011;9213;50.858;3.964;2023-04-25T14:24:46;5.87;;;2.07;;
18176;SDS011;9213;50.858;3.964;2023-04-25T14:27:13;6.97;;;2.57;;
18176;SDS011;9213;50.858;3.964;2023-04-25T14:29:40;6.87;;;3.03;;
18176;SDS011;9213;50.858;3.964;2023-04-25T14:32:07;5.73;;;2.40;;
18176;SDS011;9213;50.858;3.964;2023-04-25T14:34:35;5.13;;;1.97;;
18176;SDS011;9213;50.858;3.964;2023-04-25T14:37:03;5.20;;;2.57;;
18176;SDS011;9213;50.858;3.964;2023-04-25T14:39:30;5.47;;;2.17;;
18176;SDS011;9213;50.858;3.964;2023-04-25T14:41:57;3.63;;;1.73;;
18176;SDS011;9213;50.858;3.964;2023-04-25T14:44:25;7.83;;;2.60;;
18176;SDS011;9213;50.858;3.964;2023-04-25T14:46:51;6.67;;;2.33;;
18176;SDS011;9213;50.858;3.964;2023-04-25T14:49:18;6.07;;;2.67;;
18176;SDS011;9213;50.858;3.964;2023-04-25T14:51:45;8.07;;;3.60;;
18176;SDS011;9213;50.858;3.964;2023-04-25T14:54:13;9.17;;;3.27;;
18176;SDS011;9213;50.858;3.964;2023-04-25T14:56:40;5.80;;;2.90;;
18176;SDS011;9213;50.858;3.964;2023-04-25T14:59:07;4.70;;;2.70;;
18176;SDS011;9213;50.858;3.964;2023-04-25T15:01:34;6.93;;;2.80;;